Time;durP1;ratioP1;P1;durP2;ratioP2;P2;SDS_P1;SDS_P2;PMS_P1;PMS_P2;Temp;Humidity;BMP_temperature;BMP_pressure;BME280_temperature;BME280_humidity;BME280_pressure;Samples;Min_cycle;Max_cycle;Signal;HPM_P1;HPM_P2
2023/07/23 11:05:04;;;;;;;2.30;2.10;;;;;;;20.79;64.45;100459.69;5095418;27;97618;-80
2023/07/23 11:07:30;;;;;;;1.93;1.83;;;;;;;21.30;63.11;100458.44;5093255;27;97004;-77
2023/07/23 11:09:55;;;;;;;2.47;2.30;;;;;;;21.75;61.84;100457.28;5093872;27;97811;-79
2023/07/23 11:12:22;;;;;;;2.70;2.50;;;;;;;22.06;60.62;100459.22;5091747;27;97927;-80
2023/07/23 11:14:47;;;;;;;2.63;2.43;;;;;;;22.30;59.76;100475.19;5094672;27;97379;-80
2023/07/23 11:17:13;;;;;;;2.47;2.27;;;;;;;22.46;59.14;100472.94;5094261;27;97244;-80
2023/07/23 11:19:45;;;;;;;3.07;2.77;;;;;;;22.59;57.81;100463.44;5092700;27;97208;-82
2023/07/23 11:22:15;;;;;;;2.80;2.60;;;;;;;22.73;58.15;100458.97;5074429;27;99490;-83
2023/07/23 11:24:40;;;;;;;3.63;2.70;;;;;;;22.90;57.63;100461.72;5092738;27;97995;-79
2023/07/23 11:27:06;;;;;;;3.73;2.70;;;;;;;23.03;57.11;100478.16;5092760;27;97285;-79
2023/07/23 11:29:32;;;;;;;3.20;2.90;;;;;;;23.11;56.56;100464.75;5094742;27;97855;-79
2023/07/23 11:31:57;;;;;;;3.70;2.63;;;;;;;23.18;56.24;100461.09;5094738;27;97032;-80
2023/07/23 11:34:23;;;;;;;2.53;2.33;;;;;;;23.24;56.30;100472.78;5093653;27;97176;-79
2023/07/23 11:36:52;;;;;;;3.33;3.03;;;;;;;23.32;56.03;100462.19;5094239;27;98172;-80
2023/07/23 11:39:19;;;;;;;2.43;2.23;;;;;;;23.42;56.06;100460.16;5092852;27;97233;-79
2023/07/23 11:41:45;;;;;;;3.30;2.30;;;;;;;23.48;55.45;100454.28;5093530;27;97479;-80
2023/07/23 11:44:11;;;;;;;2.90;2.60;;;;;;;23.52;55.68;100475.00;5092881;27;97527;-80
2023/07/23 11:46:39;;;;;;;2.90;2.67;;;;;;;23.57;55.39;100470.41;5093909;27;97955;-82
2023/07/23 11:49:06;;;;;;;3.40;2.10;;;;;;;23.52;55.21;100466.56;5093774;27;97834;-81
2023/07/23 11:51:32;;;;;;;2.87;2.57;;;;;;;23.53;55.28;100470.09;5096125;27;97858;-80
2023/07/23 11:54:04;;;;;;;2.50;2.30;;;;;;;23.45;54.39;100473.03;5077769;27;98844;-78
2023/07/23 11:56:30;;;;;;;4.70;2.43;;;;;;;23.40;55.37;100467.69;5096888;27;97189;-80
2023/07/23 11:59:02;;;;;;;2.50;2.30;;;;;;;23.40;54.61;100467.69;5097351;27;97393;-81
2023/07/23 12:01:28;;;;;;;2.00;1.90;;;;;;;23.42;55.18;100457.34;5094892;27;97858;-80
2023/07/23 12:03:53;;;;;;;1.97;1.87;;;;;;;23.48;55.11;100457.09;5095913;27;97667;-78
2023/07/23 12:06:19;;;;;;;2.10;2.00;;;;;;;23.53;54.81;100445.56;5077190;27;97464;-80
2023/07/23 12:08:48;;;;;;;2.23;2.03;;;;;;;23.68;54.59;100448.09;5077894;27;101180;-80
2023/07/23 12:11:16;;;;;;;1.80;1.70;;;;;;;23.77;54.40;100436.13;5094390;27;97119;-82
2023/07/23 12:13:51;;;;;;;2.13;1.93;;;;;;;23.85;54.12;100456.41;5077402;27;98326;-79
2023/07/23 12:16:41;;;;;;;1.80;1.70;;;;;;;23.88;53.09;100443.25;5080091;27;97184;-79
2023/07/23 12:19:18;;;;;;;3.53;1.40;;;;;;;23.88;53.50;100448.84;5062211;27;101229;-78
2023/07/23 12:21:46;;;;;;;1.97;1.50;;;;;;;23.88;54.07;100436.88;5063004;27;99649;-80
2023/07/23 12:24:22;;;;;;;2.13;1.90;;;;;;;23.84;53.84;100440.13;5082593;27;97554;-82
2023/07/23 12:26:57;;;;;;;1.57;1.47;;;;;;;23.82;52.83;100434.38;5083574;27;98070;-79
2023/07/23 12:29:24;;;;;;;1.90;1.80;;;;;;;23.89;54.07;100433.50;5082440;27;97021;-82
2023/07/23 12:32:14;;;;;;;3.27;1.63;;;;;;;23.95;52.82;100442.34;5079593;27;97250;-80
2023/07/23 12:34:47;;;;;;;1.53;1.43;;;;;;;23.90;53.72;100439.81;5080479;27;98227;-78
2023/07/23 12:37:14;;;;;;;3.67;1.80;;;;;;;23.83;53.89;100453.44;5080092;27;97854;-80
2023/07/23 12:39:40;;;;;;;2.20;2.00;;;;;;;23.80;53.80;100431.41;5064918;27;100130;-77
2023/07/23 12:42:05;;;;;;;2.63;1.80;;;;;;;23.77;53.62;100430.50;5080679;27;97649;-82
2023/07/23 12:44:31;;;;;;;2.07;1.77;;;;;;;23.78;53.61;100443.25;5080247;27;97088;-79
2023/07/23 12:46:56;;;;;;;1.50;1.40;;;;;;;23.83;53.40;100439.38;5080762;27;97954;-79
2023/07/23 12:49:22;;;;;;;1.73;1.63;;;;;;;23.80;53.24;100437.78;5080528;27;97146;-80
2023/07/23 12:51:47;;;;;;;2.80;1.77;;;;;;;23.88;53.21;100465.72;5082334;27;96824;-80
2023/07/23 12:54:12;;;;;;;1.83;1.70;;;;;;;23.97;53.19;100438.94;5065001;27;98299;-80
2023/07/23 12:56:38;;;;;;;1.60;1.50;;;;;;;24.05;53.02;100439.59;5080643;27;97555;-80
2023/07/23 12:59:03;;;;;;;1.67;1.57;;;;;;;24.09;52.74;100448.31;5062133;27;100064;-79
2023/07/23 13:01:28;;;;;;;2.00;1.80;;;;;;;24.11;52.64;100432.34;5080300;27;97828;-79
2023/07/23 13:03:54;;;;;;;1.57;1.43;;;;;;;24.12;52.69;100435.88;5081243;27;97485;-79
2023/07/23 13:06:19;;;;;;;1.87;1.50;;;;;;;24.10;52.37;100438.53;5061463;27;97878;-81
2023/07/23 13:08:45;;;;;;;2.00;1.57;;;;;;;24.08;52.41;100450.38;5080472;27;97335;-78
2023/07/23 13:11:11;;;;;;;1.47;1.37;;;;;;;24.11;52.76;100437.22;5061966;27;100054;-81
2023/07/23 13:13:36;;;;;;;4.03;1.60;;;;;;;24.15;52.53;100446.69;5078210;27;97639;-79
2023/07/23 13:16:02;;;;;;;2.53;1.37;;;;;;;24.20;52.58;100444.91;5078932;27;97133;-79
2023/07/23 13:18:27;;;;;;;3.40;1.50;;;;;;;24.17;52.45;100446.81;5059894;27;101062;-80
2023/07/23 13:20:53;;;;;;;1.47;1.37;;;;;;;24.13;52.08;100449.34;5063885;27;100487;-79
2023/07/23 13:23:18;;;;;;;1.20;1.10;;;;;;;24.09;52.04;100463.09;5081027;27;98345;-82
2023/07/23 13:25:44;;;;;;;1.70;1.60;;;;;;;24.10;52.11;100450.53;5079991;27;97016;-82
2023/07/23 13:28:10;;;;;;;5.13;1.53;;;;;;;24.09;52.04;100451.13;5077057;27;99368;-80
2023/07/23 13:30:35;;;;;;;1.60;1.50;;;;;;;24.08;51.90;100455.25;5079872;27;98461;-81
2023/07/23 13:33:00;;;;;;;1.43;1.33;;;;;;;24.02;51.80;100452.72;5058741;27;97862;-80
2023/07/23 13:35:26;;;;;;;1.50;1.40;;;;;;;24.06;51.92;100455.84;5078556;27;97960;-80
2023/07/23 13:37:52;;;;;;;2.97;1.60;;;;;;;24.02;51.72;100440.72;5079509;27;97649;-80
2023/07/23 13:40:17;;;;;;;2.00;1.73;;;;;;;24.05;51.68;100448.03;5079464;27;97831;-79
2023/07/23 13:42:43;;;;;;;1.70;1.60;;;;;;;24.05;51.58;100464.88;5080290;27;97338;-82
2023/07/23 13:45:08;;;;;;;1.50;1.40;;;;;;;24.04;51.89;100455.69;5081764;27;97198;-80
2023/07/23 13:47:34;;;;;;;0.87;0.83;;;;;;;24.10;52.18;100469.44;5062595;27;99449;-82
2023/07/23 13:50:00;;;;;;;1.50;1.20;;;;;;;24.09;51.62;100463.09;5083599;27;97227;-80
2023/07/23 13:52:25;;;;;;;1.20;1.10;;;;;;;24.08;51.71;100474.94;5082363;27;96837;-82
2023/07/23 13:54:50;;;;;;;0.97;0.97;;;;;;;24.03;51.70;100461.88;5062239;27;97211;-80
2023/07/23 13:57:16;;;;;;;1.00;1.00;;;;;;;23.98;51.95;100471.34;5080201;27;97947;-78
2023/07/23 13:59:41;;;;;;;1.47;1.03;;;;;;;23.84;52.07;100477.41;5079791;27;105245;-83
2023/07/23 14:02:06;;;;;;;2.10;0.90;;;;;;;23.80;51.93;100470.75;5066064;27;97273;-82
2023/07/23 14:04:32;;;;;;;1.10;1.00;;;;;;;23.75;52.12;100480.94;5066791;27;97380;-81
2023/07/23 14:06:57;;;;;;;1.07;0.97;;;;;;;23.75;52.22;100480.19;5085123;27;98198;-83
2023/07/23 14:09:22;;;;;;;1.00;0.87;;;;;;;23.72;52.19;100484.19;5085906;27;97247;-80
2023/07/23 14:11:48;;;;;;;1.00;1.00;;;;;;;23.74;52.14;100479.44;5065345;27;98264;-83
2023/07/23 14:14:13;;;;;;;1.20;1.10;;;;;;;23.75;52.39;100480.94;5081315;27;98265;-83
2023/07/23 14:16:39;;;;;;;1.30;1.13;;;;;;;23.73;52.17;100466.75;5079386;27;98858;-81
2023/07/23 14:19:04;;;;;;;2.20;1.60;;;;;;;23.72;52.32;100476.50;5085205;27;97765;-82
2023/07/23 14:21:29;;;;;;;1.40;1.30;;;;;;;23.70;52.22;100464.34;5086707;27;97575;-83
2023/07/23 14:23:55;;;;;;;1.13;1.03;;;;;;;23.69;52.41;100468.50;5083826;27;97440;-81
2023/07/23 14:26:21;;;;;;;0.77;0.77;;;;;;;23.64;52.37;100506.78;5082482;27;97861;-81
2023/07/23 14:28:46;;;;;;;1.00;0.90;;;;;;;23.69;52.30;100483.31;5063900;27;100082;-84
2023/07/23 14:31:12;;;;;;;1.60;1.40;;;;;;;23.67;52.37;100471.91;5083986;27;97415;-80
2023/07/23 14:33:38;;;;;;;1.97;1.27;;;;;;;23.63;52.59;100473.69;5083317;27;97886;-80
2023/07/23 14:36:04;;;;;;;1.27;1.17;;;;;;;23.60;52.79;100466.41;5081270;27;97057;-82
2023/07/23 14:38:29;;;;;;;1.43;1.10;;;;;;;23.56;52.98;100503.38;5081201;27;98707;-83
2023/07/23 14:40:55;;;;;;;1.80;1.27;;;;;;;23.52;53.30;100488.28;5084143;27;97595;-83
2023/07/23 14:43:22;;;;;;;0.90;0.73;;;;;;;23.43;53.57;100489.00;5083830;27;97253;-83
2023/07/23 14:45:47;;;;;;;1.17;0.90;;;;;;;23.37;53.93;100494.88;5082948;27;98048;-80
2023/07/23 14:48:13;;;;;;;0.97;0.80;;;;;;;23.28;54.37;100494.81;5064957;27;100105;-81
2023/07/23 14:50:38;;;;;;;2.07;1.33;;;;;;;23.19;54.69;100493.47;5086251;27;97213;-81
2023/07/23 14:53:03;;;;;;;1.03;0.93;;;;;;;23.15;54.84;100490.34;5086014;27;97713;-83
2023/07/23 14:55:29;;;;;;;1.23;1.13;;;;;;;23.11;55.08;100504.78;5082041;27;96976;-80
2023/07/23 14:57:54;;;;;;;1.17;1.07;;;;;;;23.11;55.09;100487.22;5084029;27;97971;-84
2023/07/23 15:00:20;;;;;;;0.80;0.80;;;;;;;23.18;55.25;100494.03;5079467;27;98992;-83
2023/07/23 15:02:45;;;;;;;1.00;0.90;;;;;;;23.20;55.43;100478.09;5079489;27;97268;-83
2023/07/23 15:05:10;;;;;;;1.27;1.20;;;;;;;23.25;55.50;100495.97;5065570;27;99910;-83
2023/07/23 15:07:36;;;;;;;2.47;0.90;;;;;;;23.31;55.41;100485.97;5082007;27;97065;-84
2023/07/23 15:10:03;;;;;;;1.20;1.10;;;;;;;23.36;55.52;100482.19;5082471;27;97068;-84
2023/07/23 15:12:29;;;;;;;4.07;1.10;;;;;;;23.28;55.40;100475.91;5081218;27;99900;-83
2023/07/23 15:14:54;;;;;;;1.40;0.97;;;;;;;23.28;55.51;100498.38;5066003;27;101915;-84
2023/07/23 15:17:20;;;;;;;0.90;0.80;;;;;;;23.31;55.64;100482.41;5079677;27;100328;-82
2023/07/23 15:19:45;;;;;;;1.33;1.23;;;;;;;23.29;55.83;100487.88;5080766;27;97789;-83
2023/07/23 15:22:11;;;;;;;2.10;1.40;;;;;;;23.21;56.19;100473.22;5062296;27;97599;-83
2023/07/23 15:24:37;;;;;;;1.00;1.00;;;;;;;23.15;56.21;100475.56;5061042;27;99751;-82
2023/07/23 15:27:04;;;;;;;1.10;1.00;;;;;;;23.19;56.51;100487.84;5081526;27;97992;-84
2023/07/23 15:29:34;;;;;;;2.67;1.50;;;;;;;23.19;56.84;100468.19;5082470;27;97248;-83
2023/07/23 15:32:00;;;;;;;1.87;1.10;;;;;;;23.21;56.69;100481.63;5082321;27;96896;-82
2023/07/23 15:34:25;;;;;;;1.30;1.20;;;;;;;23.22;56.41;100492.28;5063909;27;101243;-83
2023/07/23 15:36:51;;;;;;;1.83;1.00;;;;;;;23.28;56.64;100481.53;5081675;27;100121;-85
2023/07/23 15:39:16;;;;;;;1.30;1.10;;;;;;;23.34;56.34;100520.59;5058236;27;97065;-83
2023/07/23 15:41:42;;;;;;;1.10;1.00;;;;;;;23.37;56.19;100494.16;5063584;27;98404;-83
2023/07/23 15:44:09;;;;;;;1.47;1.20;;;;;;;23.34;56.10;100479.22;5061997;27;99476;-82
2023/07/23 15:46:34;;;;;;;1.17;1.07;;;;;;;23.32;55.86;100495.13;5080019;27;98408;-79
2023/07/23 15:49:00;;;;;;;1.10;0.97;;;;;;;23.26;55.91;100498.22;5081586;27;97262;-82
2023/07/23 15:51:25;;;;;;;2.73;0.77;;;;;;;23.28;56.18;100487.16;5087596;27;97440;-80
2023/07/23 15:53:51;;;;;;;1.47;0.87;;;;;;;23.28;56.09;100487.16;5084051;27;96865;-82
2023/07/23 15:56:16;;;;;;;2.33;0.70;;;;;;;23.31;56.00;100499.25;5086218;27;97976;-81
2023/07/23 15:58:41;;;;;;;0.83;0.83;;;;;;;23.32;56.12;100481.84;5068626;27;97682;-83
2023/07/23 16:01:07;;;;;;;0.77;0.77;;;;;;;23.40;56.04;100485.28;5088458;27;97318;-84
2023/07/23 16:03:32;;;;;;;1.03;0.93;;;;;;;23.42;56.03;100477.00;5085582;27;97109;-85
2023/07/23 16:06:44;;;;;;;0.80;0.77;;;;;;;23.43;55.92;100481.31;5063186;27;100144;-85
2023/07/23 16:09:10;;;;;;;0.90;0.90;;;;;;;23.43;56.00;100489.75;5061248;27;96913;-83
2023/07/23 16:11:35;;;;;;;1.20;1.00;;;;;;;23.35;55.92;100500.34;5065554;27;96963;-83
2023/07/23 16:14:00;;;;;;;1.30;1.20;;;;;;;23.30;56.07;100487.31;5083975;27;100806;-83
2023/07/23 16:16:26;;;;;;;1.20;1.10;;;;;;;23.26;56.36;100494.66;5079276;27;97581;-82
2023/07/23 16:18:52;;;;;;;1.37;1.27;;;;;;;23.24;56.30;100483.28;5066976;27;97081;-84
2023/07/23 16:21:17;;;;;;;1.27;1.17;;;;;;;23.21;56.29;100471.16;5064569;27;98702;-82
2023/07/23 16:23:42;;;;;;;0.83;0.83;;;;;;;23.13;56.33;100465.66;5065541;27;105877;-82
2023/07/23 16:26:08;;;;;;;1.10;1.03;;;;;;;23.16;56.44;100466.56;5085893;27;97914;-84
2023/07/23 16:28:34;;;;;;;1.00;0.90;;;;;;;23.28;56.45;100455.53;5066890;27;97650;-85
2023/07/23 16:30:59;;;;;;;0.90;0.90;;;;;;;23.25;56.64;100467.91;5085280;27;97776;-85
2023/07/23 16:33:25;;;;;;;1.03;1.03;;;;;;;23.37;56.35;100472.41;5066484;27;100709;-87
2023/07/23 16:35:54;;;;;;;1.27;1.17;;;;;;;23.50;56.15;100454.44;5067289;27;100024;-84
2023/07/23 16:38:24;;;;;;;1.10;1.00;;;;;;;23.63;56.22;100456.81;5067748;27;97835;-85
2023/07/23 16:40:50;;;;;;;1.47;1.20;;;;;;;23.63;56.10;100451.94;5087009;27;96946;-84
2023/07/23 16:43:18;;;;;;;3.07;1.23;;;;;;;23.68;55.94;100436.84;5088480;27;97254;-83
2023/07/23 16:45:46;;;;;;;0.90;0.90;;;;;;;23.69;55.95;100482.56;5085164;27;98570;-83
2023/07/23 16:48:12;;;;;;;1.10;1.00;;;;;;;23.64;55.76;100435.81;5068536;27;99063;-84
2023/07/23 16:50:38;;;;;;;0.93;0.93;;;;;;;23.60;55.99;100475.59;5072025;27;97085;-85
2023/07/23 16:53:03;;;;;;;1.23;1.00;;;;;;;23.60;56.04;100441.88;5066195;27;99439;-83
2023/07/23 16:55:29;;;;;;;1.03;1.03;;;;;;;23.55;56.11;100450.59;5089090;27;99406;-84
2023/07/23 16:57:56;;;;;;;1.90;1.53;;;;;;;23.66;56.20;100444.41;5087353;27;99131;-83
2023/07/23 17:00:24;;;;;;;1.23;1.17;;;;;;;23.64;56.03;100469.53;5070490;27;97309;-84
2023/07/23 17:02:49;;;;;;;1.43;1.33;;;;;;;23.74;56.06;100436.59;5068843;27;100510;-83
2023/07/23 17:05:14;;;;;;;1.57;1.47;;;;;;;23.76;55.75;100442.34;5067827;27;100190;-82
2023/07/23 17:07:40;;;;;;;1.50;1.40;;;;;;;23.75;55.74;100436.00;5065462;27;98267;-82
2023/07/23 17:10:06;;;;;;;1.77;1.67;;;;;;;23.74;55.78;100428.16;5067958;27;98003;-84
2023/07/23 17:12:31;;;;;;;1.50;1.40;;;;;;;23.81;55.75;100441.31;5088731;27;99582;-84
2023/07/23 17:14:56;;;;;;;1.70;1.60;;;;;;;23.80;55.64;100437.78;5082112;27;98563;-85
2023/07/23 17:17:22;;;;;;;1.77;1.67;;;;;;;23.75;55.60;100452.84;5065085;27;98969;-83
2023/07/23 17:19:47;;;;;;;1.70;1.60;;;;;;;23.77;55.55;100438.94;5087292;27;97913;-83
2023/07/23 17:22:12;;;;;;;1.33;1.23;;;;;;;23.84;55.79;100446.50;5082364;27;97929;-84
2023/07/23 17:24:41;;;;;;;1.80;1.70;;;;;;;23.91;55.43;100430.09;5083779;27;102240;-82
2023/07/23 17:27:07;;;;;;;2.10;2.00;;;;;;;23.87;55.51;100419.28;5085189;27;98147;-82
2023/07/23 17:29:33;;;;;;;2.60;2.40;;;;;;;23.88;55.60;100422.81;5086778;27;97714;-85
2023/07/23 17:31:58;;;;;;;2.20;2.00;;;;;;;23.86;55.36;100423.41;5066372;27;99543;-83
2023/07/23 17:34:23;;;;;;;2.53;2.23;;;;;;;23.84;55.48;100423.28;5065277;27;101812;-82
2023/07/23 17:36:50;;;;;;;2.30;2.10;;;;;;;23.85;55.67;100438.81;5066044;27;97434;-82
2023/07/23 17:39:17;;;;;;;2.20;2.10;;;;;;;23.84;55.55;100421.22;5068016;27;97316;-83
2023/07/23 17:41:43;;;;;;;2.33;2.00;;;;;;;23.87;55.57;100429.78;5084482;27;97588;-83
2023/07/23 17:44:08;;;;;;;1.70;1.60;;;;;;;23.84;55.43;100421.22;5081069;27;108887;-83
2023/07/23 17:46:33;;;;;;;1.87;1.77;;;;;;;23.75;55.66;100436.00;5085858;27;97442;-82
2023/07/23 17:48:59;;;;;;;1.80;1.70;;;;;;;23.80;55.66;100437.78;5064572;27;98586;-84
2023/07/23 17:51:24;;;;;;;2.10;2.00;;;;;;;23.72;55.52;100458.91;5066459;27;100463;-83
2023/07/23 17:53:49;;;;;;;1.73;1.63;;;;;;;23.67;55.64;100459.94;5086330;27;97891;-85
2023/07/23 17:56:15;;;;;;;2.20;1.83;;;;;;;23.77;55.80;100410.09;5065160;27;97649;-85
2023/07/23 17:58:41;;;;;;;1.73;1.63;;;;;;;23.75;55.64;100415.56;5064530;27;97182;-84
2023/07/23 18:01:07;;;;;;;1.60;1.50;;;;;;;23.76;55.50;100420.59;5082568;27;98130;-83
2023/07/23 18:03:32;;;;;;;1.67;1.57;;;;;;;23.76;55.63;100408.63;5066676;27;99287;-84
2023/07/23 18:05:58;;;;;;;1.63;1.53;;;;;;;23.78;55.64;100405.97;5065635;27;98434;-81
2023/07/23 18:08:25;;;;;;;1.63;1.53;;;;;;;23.82;55.54;100406.28;5083896;27;97227;-84
2023/07/23 18:10:51;;;;;;;1.60;1.50;;;;;;;23.80;55.47;100411.75;5063464;27;100714;-83
2023/07/23 18:13:16;;;;;;;1.70;1.60;;;;;;;23.80;55.65;100398.44;5081764;27;98000;-83
2023/07/23 18:15:43;;;;;;;1.43;1.33;;;;;;;23.73;55.53;100435.84;5086124;27;97297;-85
2023/07/23 18:18:08;;;;;;;1.73;1.60;;;;;;;23.74;55.66;100409.22;5083280;27;96973;-83
2023/07/23 18:20:33;;;;;;;1.80;1.70;;;;;;;23.67;55.74;100393.25;5084252;27;97856;-84
2023/07/23 18:22:59;;;;;;;1.40;1.30;;;;;;;23.67;55.78;100404.50;5064086;27;99590;-84
2023/07/23 18:25:24;;;;;;;1.53;1.43;;;;;;;23.65;55.84;100418.41;5083085;27;97153;-83
2023/07/23 18:27:51;;;;;;;1.57;1.47;;;;;;;23.61;55.94;100387.16;5063714;27;97300;-84
2023/07/23 18:30:16;;;;;;;1.63;1.53;;;;;;;23.59;56.02;100387.03;5062371;27;100728;-79
2023/07/23 18:32:42;;;;;;;1.83;1.73;;;;;;;23.59;55.93;100389.13;5084757;27;97132;-83
2023/07/23 18:35:07;;;;;;;1.57;1.47;;;;;;;23.54;56.01;100433.00;5063392;27;97015;-82
2023/07/23 18:37:33;;;;;;;1.50;1.40;;;;;;;23.53;56.05;100380.22;5085312;27;97409;-84
2023/07/23 18:39:58;;;;;;;1.50;1.40;;;;;;;23.51;56.21;100383.63;5084844;27;97561;-85
2023/07/23 18:42:24;;;;;;;1.30;1.20;;;;;;;23.47;56.24;100383.34;5066079;27;99266;-81
2023/07/23 18:44:50;;;;;;;1.50;1.40;;;;;;;23.44;56.15;100364.09;5085101;27;97651;-83
2023/07/23 18:47:16;;;;;;;2.10;1.70;;;;;;;23.39;56.24;100390.41;5081252;27;96933;-84
2023/07/23 18:49:41;;;;;;;1.43;1.13;;;;;;;23.35;56.31;100359.22;5084218;27;98730;-83
2023/07/23 18:52:07;;;;;;;1.53;1.43;;;;;;;23.37;56.52;100382.56;5084638;27;97783;-83
2023/07/23 18:54:32;;;;;;;1.40;1.30;;;;;;;23.29;56.52;100395.97;5084826;27;96985;-84
2023/07/23 18:57:00;;;;;;;0.97;0.97;;;;;;;23.28;56.48;100405.00;5081990;27;96888;-85
2023/07/23 18:59:28;;;;;;;6.00;1.30;;;;;;;23.21;56.52;100380.59;5082693;27;97039;-84
2023/07/23 19:01:56;;;;;;;1.73;1.50;;;;;;;23.26;56.70;100362.72;5081721;27;97297;-85
2023/07/23 19:04:22;;;;;;;1.00;1.00;;;;;;;23.12;56.68;100390.47;5084322;27;98896;-82
2023/07/23 19:06:48;;;;;;;1.40;1.30;;;;;;;23.11;56.73;100392.53;5084455;27;97370;-85
2023/07/23 19:09:13;;;;;;;1.40;1.30;;;;;;;23.10;56.89;100412.78;5082918;27;97231;-82
2023/07/23 19:11:39;;;;;;;1.20;1.10;;;;;;;23.06;56.99;100375.97;5084270;27;99065;-86
2023/07/23 19:14:04;;;;;;;6.03;1.40;;;;;;;22.96;56.90;100404.00;5085965;27;98675;-86
2023/07/23 19:16:32;;;;;;;1.57;1.47;;;;;;;22.98;57.18;100369.72;5085356;27;96823;-83
2023/07/23 19:19:03;;;;;;;1.73;1.63;;;;;;;22.91;57.46;100351.69;5064274;27;98751;-85
2023/07/23 19:21:29;;;;;;;1.30;1.30;;;;;;;22.82;57.33;100377.69;5064781;27;99309;-84
2023/07/23 19:23:54;;;;;;;1.40;1.30;;;;;;;22.77;57.57;100397.56;5065211;27;96805;-85
2023/07/23 19:26:22;;;;;;;1.57;1.47;;;;;;;22.80;57.36;100390.81;5085037;27;97755;-84
2023/07/23 19:28:47;;;;;;;1.50;1.40;;;;;;;22.65;57.68;100407.88;5068718;27;99545;-84
2023/07/23 19:31:13;;;;;;;1.13;1.03;;;;;;;22.63;57.73;100340.41;5067386;27;98862;-85
2023/07/23 19:33:38;;;;;;;8.57;1.70;;;;;;;22.65;57.76;100351.78;5067638;27;98323;-80
2023/07/23 19:36:04;;;;;;;1.70;1.50;;;;;;;22.51;57.88;100365.41;5086525;27;97306;-82
2023/07/23 19:38:29;;;;;;;1.67;1.57;;;;;;;22.47;58.00;100325.84;5066835;27;100654;-85
2023/07/23 19:40:54;;;;;;;1.60;1.50;;;;;;;22.43;58.08;100372.44;5069032;27;99341;-84
2023/07/23 19:43:20;;;;;;;2.10;1.43;;;;;;;22.40;58.08;100388.34;5067518;27;97488;-85
2023/07/23 19:45:45;;;;;;;1.43;1.33;;;;;;;22.36;58.20;100355.16;5086860;27;98036;-83
2023/07/23 19:48:10;;;;;;;1.30;1.20;;;;;;;22.31;58.37;100369.41;5084431;27;98138;-83
2023/07/23 19:50:36;;;;;;;1.50;1.40;;;;;;;22.32;58.39;100343.59;5084510;27;97988;-83
2023/07/23 19:53:01;;;;;;;2.80;1.70;;;;;;;22.30;58.48;100376.38;5087477;27;97361;-82
2023/07/23 19:55:27;;;;;;;1.73;1.53;;;;;;;22.26;58.57;100384.44;5086118;27;98068;-85
2023/07/23 19:57:53;;;;;;;1.70;1.50;;;;;;;22.16;58.67;100364.00;5084395;27;98173;-84
2023/07/23 20:00:18;;;;;;;1.10;1.00;;;;;;;22.19;58.68;100346.06;5083685;27;97964;-84
2023/07/23 20:02:43;;;;;;;1.40;1.33;;;;;;;22.15;58.65;100329.66;5085828;27;97527;-85
2023/07/23 20:05:09;;;;;;;1.60;1.50;;;;;;;22.18;58.79;100348.09;5067553;27;97812;-83
2023/07/23 20:07:35;;;;;;;2.50;1.40;;;;;;;22.16;58.94;100347.22;5085402;27;98057;-84
2023/07/23 20:10:00;;;;;;;1.60;1.50;;;;;;;22.15;59.03;100338.06;5066779;27;98970;-84
2023/07/23 20:12:26;;;;;;;1.87;1.77;;;;;;;22.16;58.82;100339.53;5082369;27;98432;-85
2023/07/23 20:14:52;;;;;;;2.37;1.40;;;;;;;22.15;59.04;100351.31;5083991;27;97250;-83
2023/07/23 20:17:17;;;;;;;1.60;1.50;;;;;;;22.18;59.00;100330.53;5085027;27;97767;-83
2023/07/23 20:19:43;;;;;;;1.80;1.70;;;;;;;22.15;59.10;100329.66;5085235;27;97167;-84
2023/07/23 20:22:08;;;;;;;1.37;1.27;;;;;;;22.16;59.02;100331.13;5087787;27;97643;-84
2023/07/23 20:24:33;;;;;;;1.33;1.23;;;;;;;22.14;59.26;100324.63;5086115;27;96798;-85
2023/07/23 20:26:59;;;;;;;1.57;1.47;;;;;;;22.13;59.21;100332.28;5082601;27;104589;-84
2023/07/23 20:29:24;;;;;;;2.00;1.90;;;;;;;22.13;59.38;100325.94;5069008;27;98979;-84
2023/07/23 20:31:50;;;;;;;2.23;2.03;;;;;;;22.08;59.49;100363.38;5088171;27;97018;-83
2023/07/23 20:34:15;;;;;;;2.03;1.93;;;;;;;22.10;59.26;100327.88;5084003;27;97519;-86
2023/07/23 20:36:43;;;;;;;1.80;1.70;;;;;;;22.09;59.30;100323.56;5066764;27;98870;-83
2023/07/23 20:39:08;;;;;;;2.10;2.00;;;;;;;22.04;59.52;100335.06;5065518;27;99278;-83
2023/07/23 20:41:35;;;;;;;1.53;1.43;;;;;;;22.09;59.52;100337.56;5086121;27;97161;-84
2023/07/23 20:44:00;;;;;;;1.70;1.60;;;;;;;22.00;59.49;100324.25;5085005;27;97092;-83
2023/07/23 20:46:26;;;;;;;3.27;1.47;;;;;;;22.01;59.66;100302.56;5085730;27;97880;-84
2023/07/23 20:48:52;;;;;;;1.60;1.50;;;;;;;22.05;59.66;100308.50;5082475;27;98962;-83
2023/07/23 20:51:18;;;;;;;1.50;1.40;;;;;;;22.09;59.64;100320.78;5086436;27;97295;-83
2023/07/23 20:53:43;;;;;;;1.90;1.80;;;;;;;22.11;59.51;100325.78;5084521;27;97227;-84
2023/07/23 20:56:09;;;;;;;1.70;1.60;;;;;;;22.09;59.41;100334.78;5084031;27;97315;-83
2023/07/23 20:58:34;;;;;;;1.77;1.67;;;;;;;22.07;59.46;100329.00;5083461;27;96848;-84
2023/07/23 21:00:59;;;;;;;1.80;1.70;;;;;;;22.09;59.30;100354.38;5066653;27;97269;-84
2023/07/23 21:03:25;;;;;;;2.17;2.07;;;;;;;22.13;59.19;100376.38;5082289;27;98264;-84
2023/07/23 21:05:50;;;;;;;2.20;2.10;;;;;;;22.24;59.28;100342.22;5085303;27;100718;-85
2023/07/23 21:08:15;;;;;;;1.87;1.77;;;;;;;22.31;59.10;100350.53;5088009;27;100904;-85
2023/07/23 21:10:41;;;;;;;1.87;1.77;;;;;;;22.37;59.01;100359.41;5087997;27;97073;-84
2023/07/23 21:13:09;;;;;;;1.80;1.70;;;;;;;22.41;58.98;100367.41;5085559;27;96831;-87
2023/07/23 21:15:35;;;;;;;1.87;1.77;;;;;;;22.38;59.09;100369.31;5080514;27;97859;-84
2023/07/23 21:18:01;;;;;;;2.10;1.87;;;;;;;22.31;59.04;100358.94;5082598;27;96973;-85
2023/07/23 21:20:34;;;;;;;2.07;1.97;;;;;;;22.29;59.65;100374.88;5084144;27;96882;-84
2023/07/23 21:22:59;;;;;;;2.80;1.87;;;;;;;22.35;59.61;100397.75;5069213;27;97106;-84
2023/07/23 21:25:41;;;;;;;2.10;2.00;;;;;;;22.21;60.92;100358.13;5086962;27;97510;-83
2023/07/23 21:28:12;;;;;;;2.20;2.00;;;;;;;22.09;60.66;100388.00;5088383;27;97198;-84
2023/07/23 21:30:50;;;;;;;2.20;2.00;;;;;;;22.02;61.43;100357.28;5088187;27;97095;-83
2023/07/23 21:33:23;;;;;;;2.27;2.10;;;;;;;21.87;61.27;100366.63;5085104;27;97298;-85
2023/07/23 21:35:49;;;;;;;3.17;2.83;;;;;;;21.79;61.21;100329.53;5089989;27;96688;-85
2023/07/23 21:38:17;;;;;;;2.13;2.00;;;;;;;21.80;61.60;100344.28;5084849;27;97017;-84
2023/07/23 21:40:43;;;;;;;2.13;1.93;;;;;;;21.79;61.57;100384.81;5074544;27;97246;-83
2023/07/23 21:43:08;;;;;;;1.90;1.80;;;;;;;21.72;61.65;100372.38;5087830;27;97391;-85
2023/07/23 21:45:34;;;;;;;1.97;1.87;;;;;;;21.75;61.71;100312.41;5087113;27;97428;-86
2023/07/23 21:48:00;;;;;;;1.80;1.70;;;;;;;21.67;61.81;100292.16;5080961;27;97244;-83
2023/07/23 21:50:25;;;;;;;1.90;1.80;;;;;;;21.69;61.84;100305.59;5082664;27;101040;-84
2023/07/23 21:52:51;;;;;;;11.47;1.90;;;;;;;21.72;61.80;100327.56;5074422;27;97005;-84
2023/07/23 21:55:52;;;;;;;1.90;1.70;;;;;;;21.63;63.14;100314.22;5068127;27;99881;-84
2023/07/23 21:58:18;;;;;;;1.83;1.73;;;;;;;21.57;62.21;100300.50;5062696;27;99948;-83
2023/07/23 22:00:46;;;;;;;1.57;1.47;;;;;;;21.70;62.30;100304.25;5065854;27;97002;-85
2023/07/23 22:03:12;;;;;;;2.20;2.00;;;;;;;21.63;62.03;100305.81;5068284;27;96964;-86
2023/07/23 22:05:37;;;;;;;1.73;1.63;;;;;;;21.59;62.27;100331.44;5078780;27;97940;-83
2023/07/23 22:08:03;;;;;;;2.37;2.17;;;;;;;21.58;62.40;100313.16;5078481;27;97282;-84
2023/07/23 22:10:28;;;;;;;2.27;2.13;;;;;;;21.66;62.45;100324.28;5064588;27;97431;-84
2023/07/23 22:12:53;;;;;;;2.10;2.00;;;;;;;21.61;62.55;100344.84;5081617;27;97361;-85
2023/07/23 22:15:19;;;;;;;2.10;2.00;;;;;;;21.59;62.56;100365.03;5078517;27;96861;-84
2023/07/23 22:17:44;;;;;;;2.53;2.33;;;;;;;21.49;62.34;100349.47;5080216;27;97384;-83
2023/07/23 22:20:10;;;;;;;1.67;1.57;;;;;;;21.41;62.59;100315.97;5083700;27;97250;-85
2023/07/23 22:22:35;;;;;;;1.97;1.87;;;;;;;21.50;62.74;100295.72;5071323;27;102039;-84
2023/07/23 22:25:01;;;;;;;2.00;1.90;;;;;;;21.47;62.72;100288.47;5084085;27;97290;-84